This site, now in its 22nd season, is a labour of love and fun from one of Ottawa's most avid time trialists and number crunchers. It adheres to and is permitted by the laws of Canada, promotes the objectives of every bicycle club whose results are shown, and is donated free of charge by myself for your enjoyment and usage. If you would like results from series you ride in to be shown here, give me (celia@drmath.ca) a shout!
NOTE that this site had to be quickly moved to a new server with a new version of Perl. Unfortunately the way of interacting with the web form has changed, so I'll have to do some reprogramming to get the buttons and search boxes working. Meanwhile the links work fine and you can always add query specifications into the URL! :-)


Index Page
ATT OTT WTT AATT CFCTT VVVTT
Help resultformat:
Case-sensitive

OBC Open TT Series - 2012-Jun-14 - 15km (Rockliffe Pkwy) (EvtFactor = 0.931)

Ottawa Weather (18:00): Mainly Sunny. Temperature: 23°C, Humidity: 37%, Dew Point: 8°C, Wind: ENE 16km/h, Pressure: 102.7kPa, Visibility: 10km.
Ottawa Weather (19:00): Mainly Sunny. Temperature: 22°C, Humidity: 40%, Dew Point: 8°C, Wind: ENE 11km/h, Pressure: 102.6kPa, Visibility: 10km.
Ottawa Weather (20:00): Sunny. Temperature: 20°C, Humidity: 51%, Dew Point: 10°C, Wind: ESE 10km/h, Pressure: 102.6kPa, Visibility: 10km.



The air was pretty thick tonight with high air pressure, but regardless of this impediment, 39 of the 77 who had ridden an earlier OTT time trial in 2012 improved upon their previous season-series best and 23 out of 89 entrants bettered their previous 15km database best! Bailin Xie (22:54) reset the Cadet Female category best 15km by taking an other two seconds of her time last week and finishing second amongst the women. Senior woman Nina Nesdoly (22:46) was the fastest woman with her cube speed improvement of about 9% over her previous 15km database best of 23:11 set last year as a Junior. Veteran B Carol Deavy (23:42) narrowly edged out Robyn Angeles (23:43), Kelly McKean (23:49) and Lisa Meyer (23:54) for third. Congratulations also to Nia Byway! Her PeeWee (10-12 years old) time of 27:00 is the best since Julie Peltz's rides in the OPWF category in 1993. There was one major surprise in the first posting of the men's results men's race - Not Aaron Fillion finishing first with 18:19, but rather Matthew Surch's initial second place ranking with an incredible 18:34 on a fixed gear bike. This would be a minute and 48 seconds faster than his previous best from last July 14 which would have been a huge 31.99% improvement. Not surprisingly, this turned out to be a data entry error. His real time was 20:34, which is now fixed here and which will eventually be fixed on the OBC site. Second place really was Douglas van den Ham with his 19:06 and third place was Logan Cornell with 19:47, a 2.81% improvement over his previous best of 19:58 from last week.

These results were posted on the OBC site circa 23:00 on 2012-Jun-14 and are available here for your added pleasure and analysis.

(Lest complaints about me just lazily sucking in the results surface, I wish to make it perfectly clear that I would gladly do the data entry, getting the results up within a few of hours of the event, as history shows that I did for the WTT series for the decade beginning in 1998, and for the OTT series from 1999-2002 and again in 2006. The OBC Board however, not only won't let me volunteer here, but strangely enough they actually expelled me from the OBC for donating this time trial web site to you !)




 
 

BESTS?
 
1 Fillion, Aaron  OBC/RWR 18:19 49.136 1/92 U40M 1/15 0.9281
2 van den Ham, Douglas  NTF 19:06 47.120 2/92 U40M 2/15 0.9921
3 Cornel, Logan  --- 19:47 45.493 3/92 U30M 1/14 1.0281
4 Proulx, Steve  CYC 19:55 45.188 4/92 U50M 1/15 1.0355
5 Danner, Dale EUR 19:56 45.151 5/92 U50M 2/15 1.0510
6 Hawkes, Craig CYC 20:09 44.665 6/92 U40M 3/15 1.0402
7 Gee, Jon OBC 20:11 44.591 7/92 U60M 1/19 0.9828
8 Boileau, Greg NTF 20:20 44.262 8/92 U40M 4/15 0.9878
Sudac, Rick  OBC/RWR 20:20 44.262 8/92 U70M 1/9 0.9926
10 Richer, Antoine --- 20:23 44.154 10/92 U40M 5/15 1.0123
11 Gagnon, Alexandre  OBC 20:24 44.118 11/92 U30M 2/14 1.0831
12 Gee, Derek & Lacasse, Jeremie OBC 20:26 44.046 12/92 TTT 1/1  
13 Orange, Kiernan RWR 20:28 43.974 13/92 U30M 3/14 1.0147
14 Surch, Matthew  TTC 20:34 43.760 14/92 U40M 6/15  
15 Reid, Chris  RWR 20:45 43.373 15/92 U30M 4/14 0.9808
16 Bergeron, Philippe  OBC/FAE 20:51 43.165 16/92 U30M 5/14 0.9904
17 Budgell, Glen  OBC 20:57 42.959 17/92 U60M 2/19 0.9623
18 Lees, Andrew NTF 21:15 42.353 18/92 U50M 3/15 0.9813
19 Lister, Adam OBC 21:20 42.188 19/92 U30M 6/14 0.9907
20 McAneney, Paul --- 21:30 41.860 20/92 U50M 4/15  
21 Wolfe, Yariv OBC 21:31 41.828 21/92 U50M 5/15 0.9588
22 Pellerin, Jean-Philippe OBC 21:34 41.731 22/92 U30M 7/14 0.9566
23 Till, Michael --- 21:40 41.538 23/92 U60M 3/19 0.9862
24 Hanrahan, Mason RWR 21:43 41.443 24/92 U30M 8/14  
25 Skafel, Paul CYC 21:48 41.284 25/92 U40M 7/15 1.0608
26 Kruger, Andrew  CLG 21:51 41.190 26/92 U40M 8/15 0.9886
27 Schuck, Peter  OBC/RWR 21:57 41.002 27/92 U60M 4/19 1.0046
28 Rapp, Michael OBC 22:11 40.571 28/92 U50M 6/15 0.9955
29 Zollinger, Martin RWR 22:12 40.541 29/92 U40M 9/15 0.9190
30 Konov, Sergei OBC 22:16 40.419 30/92 U40M 10/15 1.0272
31 Zappe, Erich RWR 22:17 40.389 31/92 U60M 5/19 0.9514
32 Parkinson, Scott OBC 22:19 40.329 32/92 U50M 7/15 1.0664
33 Moerman, Bram  OBC 22:20 40.299 33/92 U70M 2/9 0.9668
34 Dorego, Jean-Louis OBC 22:21 40.268 34/92 U70M 3/9 0.9429
35 Hicks, Bob  OBC 22:25 40.149 35/92 U70M 4/9 1.0000
36 Manjikian, Sevak OBC 22:28 40.059 36/92 U50M 8/15 1.1178
37 Morvan, Jacques  OBC 22:30 40.000 37/92 U70M 5/9 1.1936
38 Armstrong, Brian OBC 22:32 39.941 38/92 U50M 9/15 0.9434
Blais, Bob --- 22:32 39.941 38/92 U60M 6/19 1.0292
Larson, Eric RWR 22:32 39.941 38/92 U50M 9/15 1.0292
Sargent, Larry OBC 22:32 39.941 38/92 U60M 6/19  
42 Boulanger, Gaetan  --- 22:33 39.911 42/92 U70M 6/9 0.9801
43 Mullin, Phil --- 22:37 39.794 43/92 U40M 11/15 0.9629
44 Pihlainen, Matti FC 22:41 39.677 44/92 U30M 9/14 0.9912
45 Nesdoly, Nina  OBC 22:46 39.531 45/92 U30F 1/1 1.0904
46 Brügger, Marcel RWR 22:50 39.416 46/92 U60M 8/19 1.0512
47 Schattmann, Peter OBC 22:51 39.387 47/92 U60M 9/19 1.0332
Y 48 Xie, Bailin  OBC 22:54 39.301 48/92 U17F 1/3 1.0044
49 Drouin, Marcel OBC 22:55 39.273 49/92 U50M 11/15 1.0175
50 Hess, Detlef OBC 23:09 38.877 50/92 U60M 10/19 1.1259
51 Deschamps, Martin WQW 23:11 38.821 51/92 U40M 12/15 0.9786
52 Wilkins, Carl  OBC 23:14 38.737 52/92 U40M 13/15  
53 Momtahan, Parham  OBC 23:26 38.407 53/92 U60M 11/19 1.1105
54 Farish, Neil  OBC/RWR 23:28 38.352 54/92 U60M 12/19 1.0899
55 Kerckhoff, Hermann  ABC 23:30 38.298 55/92 U80M 1/2  
56 Rivoche, Michael WQW 23:41 38.001 56/92 U60M 13/19 1.0212
57 Deavy, Carol  OBC 23:42 37.975 57/92 U50F 1/3 0.9979
58 Angeles, Robyn  IND 23:43 37.948 58/92 U50F 2/3 0.8807
59 Coudé, Martin --- 23:44 37.921 59/92 U30M 10/14 0.9769
60 McKean, Kelly --- 23:49 37.789 60/92 U40F 1/2 1.0534
61 Pavelich, John OBC 23:52 37.709 61/92 U60M 14/19 1.0403
62 Meyer, Lisa  OBC 23:54 37.657 62/92 U60F 1/4 1.0105
63 Yaeger, Dave  OBC 23:55 37.631 63/92 U60M 15/19  
64 Lacopia, Tony  FC 23:56 37.604 64/92 U30M 11/14 0.9690
65 King, Dustin --- 24:08 37.293 65/92 U17M 1/1 1.1094
66 Déry, Nicolas  OBC 24:11 37.216 66/92 U40M 14/15 0.9917
67 Fenerty, Keith OBC 24:24 36.885 67/92 U50M 12/15  
68 Marleau, Dianne  OBC 24:25 36.860 68/92 U60F 2/4 1.0144
69 Imbrogno, Giorgio  OBC 24:26 36.835 69/92 U70M 7/9 1.0269
70 Hull, Douglas OBC 24:27 36.810 70/92 U70M 8/9  
Medaglia, Jeremy OBC 24:27 36.810 70/92 U30M 12/14 1.0352
72 Cousineau, Tiz OBC 24:35 36.610 72/92 U30M 13/14 0.9959
73 Austen, Ian  OBC 24:47 36.315 73/92 U60M 16/19 0.9661
Burge, Larry & MacLellan, Helen OBC 24:47 36.315 73/92 TAN 1/1  
75 Yardley, Jane  OBC 24:50 36.242 75/92 U40F 2/2  
76 Campbell, Keltie OBC 24:53 36.169 76/92 U17F 2/3 1.0932
77 Gilchrist, Ryan  OBC 25:00 36.000 77/92 U50M 13/15 1.0343
78 Johnson, Byron  OBC 25:03 35.928 78/92 U70M 9/9 0.9606
79 Hall, David  OBC 25:22 35.480 79/92 U60M 17/19 0.9307
80 Janusauskas, Vytas  OBC 25:27 35.363 80/92 U60M 18/19 0.9669
81 Levi, Cheryl OBC 25:46 34.929 81/92 U60F 3/4  
82 Douglas, Mark  OBC 25:56 34.704 82/92 U60M 19/19 1.0629
83 Slaunwhite, Patricia  OBC 26:04 34.527 83/92 U50F 3/3 1.0626
84 Burton, Myriam  OBC 26:05 34.505 84/92 U17F 3/3 1.1051
85 Bouchard, Sebastién OBC 26:06 34.483 85/92 U30M 14/14 0.9145
86 Dore, Morley OBC 26:20 34.177 86/92 U80M 2/2 0.9423
87 Cooper, Dave OBC 26:30 33.962 87/92 U50M 14/15 1.0460
88 Byway, Nia  OBC 27:00 33.333 88/92 U13F 1/1 1.0681
89 McInnis, Celia  ABC/CYF 27:06 33.210 89/92 U60F 4/4 0.8529
90 Ajersch, Mary  OBC 27:55 32.239 90/92 U80F 1/1 1.0253
91 LeBrun, Robert OBC 33:38 26.759 91/92 U40M 15/15 0.9517
92 Robitaille, Brian  OBC DNF   92/92 U50M 15/15  
 
Average Speed of all of the above 91 finishes (1365km in 35:02:26):38.955
>>>Average of the Average Speeds for these 91 finishes39.303<<<
 

The number of data records shown above is 92
The server processing of your query took: 1 wallclock secs ( 0.05 usr + 0.00 sys = 0.05 CPU)

Thanks to our Helpers: Avery Burdett, Leona Gray, Alex McKnight, Alexandre Michel, Jess Raymond, Stephanie Rees, Peter Tregunno.

     


Apr 6 (Good Friday) Apr 16 (10km) Apr 23 (10km) (Canceled - Cold Drizzle) Apr 30 (10km)
May 1 (10km) May 3 May 7 (10km) May 8 (10km) May 10 May 14 (10km) May 15 May 15 (10km) May 17 May 22 May 22 (10km) May 24 May 28 (10km) May 29 May 29 (10km) May 31
Jun 3 (40km) Jun 4 (10km) Jun 5 Jun 5 Jun 7 Jun 11 (10km) Jun 12 Jun 12
  Jun 14  
Jun 18 (10km) Jun 19 Jun 19 Jun 21 Jun 25 (10km) Jun 26 Jun 26 Jun 28
Jul 2 (10km) Jul 3 Jul 3 Jul 5 Jul 8 (40km) Jul 9 Jul 10 Jul 10 Jul 12 Jul 16 Jul 17 Jul 17 Jul 19 Jul 22 (40km) Jul 23 (Cancelled - Thunderstorm) Jul 24 Jul 24 Jul 26 Jul 30 Jul 31 Jul 31
Aug 2 Aug 5 (40km) Aug 6 Aug 7 Aug 7 Aug 9 Aug 12 (40km) Aug 13 Aug 14 Aug 14 Aug 16 Aug 20 Aug 21 Aug 21 Aug 23 Aug 28 Aug 28 (Invitational) Aug 30
Sep 2 (40km) Sep 4 Sep 6 Sep 9 (40km) Sep 11 Sep 13 Sep 18 Sep 25

OTT Rankings
3 Best Speeds     3 Best Speeds by category
WTT Rankings for All Participants
4 Best Speeds (≥4 WTT, ≤1 10km)     4 Best Speeds (≥4 WTT, ≤1 10km) by category
OTT Best Three 15km Rankings
Overall     by category     age-Hcap Female   age-Hcap Male
[OWA]TT BAR Ranking
Overall     by category     Rider "Consistency-Graph"
ABC BAR Ranking
Overall     by category     Rider "Consistency-Graph"
Other years
TT Calculator All TT People All TT events
ABC Home VVV Home
CKAP GOLD MEDAL
Other Links

Please send your comments and suggestions to: Celia McInnis
Copyright © 1998-2021 Celia McInnis. All rights reserved. Links are welcomed.